createdAt,value
2017-09-03T00:00:13.273Z,69.40
2017-09-03T00:02:41.437Z,69.40
2017-09-03T00:05:09.605Z,69.30
2017-09-03T00:07:37.746Z,68.90
2017-09-03T00:10:05.909Z,69.10
2017-09-03T00:12:34.260Z,70.00
2017-09-03T00:15:02.410Z,69.00
2017-09-03T00:17:30.559Z,69.10
2017-09-03T00:19:58.731Z,68.50
2017-09-03T00:22:26.878Z,68.70
2017-09-03T00:24:55.045Z,68.90
2017-09-03T00:27:23.214Z,68.90
2017-09-03T00:29:51.388Z,69.40
2017-09-03T00:32:19.545Z,68.50
2017-09-03T00:34:47.724Z,69.50
2017-09-03T00:37:15.870Z,69.80
2017-09-03T00:39:44.019Z,69.90
2017-09-03T00:42:12.307Z,70.00
2017-09-03T00:44:40.465Z,70.30
2017-09-03T00:47:08.642Z,70.40
2017-09-03T00:49:36.825Z,70.60
2017-09-03T00:52:05.767Z,70.60
2017-09-03T00:54:33.944Z,70.50
2017-09-03T00:57:02.122Z,70.60
2017-09-03T00:59:30.298Z,70.70
2017-09-03T01:01:58.460Z,70.50
2017-09-03T01:04:26.673Z,70.40
2017-09-03T01:06:54.983Z,70.70
2017-09-03T01:09:23.133Z,71.00
2017-09-03T01:11:51.339Z,70.70
2017-09-03T01:14:19.512Z,70.20
2017-09-03T01:16:47.682Z,70.90
2017-09-03T01:19:15.882Z,71.00
2017-09-03T01:21:44.043Z,71.40
2017-09-03T01:24:12.212Z,71.30
2017-09-03T01:26:40.398Z,71.20
2017-09-03T01:29:08.551Z,71.20
2017-09-03T01:31:36.707Z,71.10
2017-09-03T01:34:04.915Z,71.20
2017-09-03T01:36:33.067Z,71.50
2017-09-03T01:39:01.249Z,71.50
2017-09-03T01:41:29.427Z,71.80
2017-09-03T01:43:57.589Z,71.80
2017-09-03T01:46:26.509Z,71.80
2017-09-03T01:48:54.717Z,71.70
2017-09-03T01:51:22.878Z,71.80
2017-09-03T01:53:51.027Z,71.80
2017-09-03T01:56:19.217Z,71.80
2017-09-03T01:58:47.398Z,71.80
2017-09-03T02:01:15.553Z,71.50
2017-09-03T02:03:43.749Z,71.90
2017-09-03T02:06:11.926Z,72.10
2017-09-03T02:08:40.075Z,71.50
2017-09-03T02:11:08.250Z,71.70
2017-09-03T02:13:36.408Z,72.20
2017-09-03T02:16:04.551Z,71.80
2017-09-03T02:18:32.748Z,72.00
2017-09-03T02:21:01.791Z,72.20
2017-09-03T02:23:29.966Z,72.20
2017-09-03T02:25:58.149Z,72.30
2017-09-03T02:28:26.298Z,71.90
2017-09-03T02:30:54.489Z,71.70
2017-09-03T02:33:22.685Z,72.00
2017-09-03T02:35:50.853Z,72.40
2017-09-03T02:38:19.020Z,72.40
2017-09-03T02:40:47.233Z,72.50
2017-09-03T02:43:15.390Z,72.50
2017-09-03T02:45:43.561Z,72.60
2017-09-03T02:48:11.757Z,72.60
2017-09-03T02:50:39.913Z,72.60
2017-09-03T02:53:08.086Z,72.80
2017-09-03T02:55:36.273Z,72.00
2017-09-03T02:58:04.440Z,71.80
2017-09-03T03:00:32.617Z,72.50
2017-09-03T03:03:00.791Z,72.30
2017-09-03T03:05:28.960Z,72.70
2017-09-03T03:07:57.118Z,72.50
2017-09-03T03:10:25.311Z,72.50
2017-09-03T03:12:53.471Z,71.40
2017-09-03T03:15:21.627Z,71.40
2017-09-03T03:17:49.810Z,72.10
2017-09-03T03:20:17.971Z,73.00
2017-09-03T03:22:46.369Z,73.40
2017-09-03T03:25:14.639Z,73.50
2017-09-03T03:27:42.818Z,73.60
2017-09-03T03:30:10.991Z,73.70
2017-09-03T03:32:39.173Z,73.70
2017-09-03T03:35:07.332Z,74.00
2017-09-03T03:37:35.501Z,73.60
2017-09-03T03:40:03.681Z,73.70
2017-09-03T03:42:31.849Z,73.90
2017-09-03T03:45:00.024Z,73.80
2017-09-03T03:47:28.219Z,74.00
2017-09-03T03:49:56.388Z,73.90
2017-09-03T03:52:24.561Z,73.40
2017-09-03T03:54:52.742Z,73.40
2017-09-03T03:57:20.917Z,73.90
2017-09-03T03:59:49.093Z,74.30
2017-09-03T04:02:17.269Z,74.40
2017-09-03T04:04:45.449Z,74.40
2017-09-03T04:07:13.625Z,73.30
2017-09-03T04:09:41.799Z,73.30
2017-09-03T04:12:09.969Z,73.70
2017-09-03T04:14:38.127Z,73.90
2017-09-03T04:17:06.325Z,74.20
2017-09-03T04:19:34.487Z,74.30
2017-09-03T04:22:02.672Z,74.60
2017-09-03T04:24:30.850Z,74.20
2017-09-03T04:26:59.025Z,74.20
2017-09-03T04:29:27.186Z,74.50
2017-09-03T04:31:55.381Z,74.50
2017-09-03T04:34:23.544Z,74.80
2017-09-03T04:36:51.713Z,74.10
2017-09-03T04:39:19.890Z,74.10
2017-09-03T04:41:48.069Z,74.20
2017-09-03T04:44:16.234Z,74.50
2017-09-03T04:46:44.425Z,74.60
2017-09-03T04:49:12.608Z,74.70
2017-09-03T04:51:40.754Z,74.80
2017-09-03T04:54:08.946Z,74.90
2017-09-03T04:56:37.125Z,75.00
2017-09-03T04:59:05.280Z,74.80
2017-09-03T05:01:33.462Z,74.30
2017-09-03T05:04:01.610Z,74.10
2017-09-03T05:06:29.777Z,74.60
2017-09-03T05:08:57.977Z,74.80
2017-09-03T05:11:26.125Z,74.90
2017-09-03T05:13:54.309Z,75.00
2017-09-03T05:16:22.508Z,74.90
2017-09-03T05:18:50.687Z,74.90
2017-09-03T05:21:18.857Z,74.80
2017-09-03T05:23:47.050Z,75.50
2017-09-03T05:26:15.207Z,74.80
2017-09-03T05:28:43.372Z,74.60
2017-09-03T05:31:11.574Z,74.80
2017-09-03T05:33:39.754Z,75.00
2017-09-03T05:36:07.931Z,75.10
2017-09-03T05:38:36.133Z,75.10
2017-09-03T05:41:04.305Z,75.00
2017-09-03T05:43:32.485Z,75.00
2017-09-03T05:46:00.665Z,74.90
2017-09-03T05:48:28.832Z,74.90
2017-09-03T05:50:56.995Z,74.80
2017-09-03T05:53:25.941Z,74.80
2017-09-03T05:55:54.099Z,74.80
2017-09-03T05:58:22.282Z,75.00
2017-09-03T06:00:50.485Z,75.20
2017-09-03T06:03:18.671Z,75.30
2017-09-03T06:05:47.828Z,75.80
2017-09-03T06:08:16.010Z,75.00
2017-09-03T06:10:44.186Z,74.40
2017-09-03T06:13:12.358Z,74.30
2017-09-03T06:15:40.550Z,74.10
2017-09-03T06:18:08.702Z,74.30
2017-09-03T06:20:36.868Z,73.70
2017-09-03T06:23:05.074Z,73.30
2017-09-03T06:25:33.227Z,72.80
2017-09-03T06:28:01.379Z,72.30
2017-09-03T06:30:29.573Z,72.00
2017-09-03T06:32:57.726Z,71.70
2017-09-03T06:35:25.898Z,71.60
2017-09-03T06:37:54.098Z,71.00
2017-09-03T06:40:22.276Z,70.60
2017-09-03T06:42:50.429Z,69.80
2017-09-03T06:45:18.625Z,69.30
2017-09-03T06:47:46.778Z,68.70
2017-09-03T06:50:14.946Z,68.60
2017-09-03T06:52:43.120Z,68.30
2017-09-03T06:55:11.285Z,67.30
2017-09-03T06:57:39.464Z,66.80
2017-09-03T07:00:07.653Z,67.30
2017-09-03T07:02:35.814Z,65.90
2017-09-03T07:05:03.982Z,65.10
2017-09-03T07:07:32.150Z,65.10
2017-09-03T07:10:00.295Z,64.80
2017-09-03T07:12:28.441Z,64.10
2017-09-03T07:14:56.796Z,62.60
2017-09-03T07:17:24.951Z,62.10
2017-09-03T07:19:53.116Z,62.40
2017-09-03T07:22:21.319Z,61.90
2017-09-03T07:24:49.497Z,60.60
2017-09-03T07:27:17.656Z,60.30
2017-09-03T07:29:46.609Z,58.90
2017-09-03T07:32:14.794Z,58.80
2017-09-03T07:34:42.961Z,57.60
2017-09-03T07:37:11.143Z,56.60
2017-09-03T07:39:39.308Z,56.50
2017-09-03T07:42:07.469Z,55.90
2017-09-03T07:44:35.650Z,55.20
2017-09-03T07:47:03.820Z,54.90
2017-09-03T07:49:31.972Z,54.20
2017-09-03T07:52:00.149Z,53.00
2017-09-03T07:54:28.301Z,54.10
2017-09-03T07:56:56.476Z,53.50
2017-09-03T07:59:24.650Z,52.60
2017-09-03T08:01:52.797Z,51.10
2017-09-03T08:04:20.951Z,51.10
2017-09-03T08:06:49.148Z,49.40
2017-09-03T08:09:18.101Z,46.70
2017-09-03T08:11:46.268Z,46.70
2017-09-03T08:14:14.443Z,45.80
2017-09-03T08:16:42.613Z,43.40
2017-09-03T08:19:10.806Z,40.70
2017-09-03T08:21:39.007Z,37.70
2017-09-03T08:24:07.154Z,34.30
2017-09-03T08:26:35.314Z,31.80
2017-09-03T08:29:03.521Z,29.40
2017-09-03T08:31:31.682Z,28.90
2017-09-03T08:33:59.844Z,27.80
2017-09-03T08:36:28.020Z,26.90
2017-09-03T08:38:56.164Z,26.80
2017-09-03T08:41:24.333Z,25.80
2017-09-03T08:43:52.520Z,24.50
2017-09-03T08:46:20.666Z,24.50
2017-09-03T08:48:48.831Z,24.70
2017-09-03T08:51:17.010Z,24.40
2017-09-03T08:53:45.188Z,23.80
2017-09-03T08:56:13.346Z,23.90
2017-09-03T08:58:41.529Z,24.30
2017-09-03T09:01:09.685Z,24.50
2017-09-03T09:03:37.856Z,23.20
2017-09-03T09:06:06.045Z,22.20
2017-09-03T09:08:34.202Z,21.80
2017-09-03T09:11:02.369Z,20.70
2017-09-03T09:13:30.542Z,21.30
2017-09-03T09:15:58.708Z,22.30
2017-09-03T09:18:26.879Z,24.70
2017-09-03T09:20:55.055Z,25.80
2017-09-03T09:23:23.203Z,27.60
2017-09-03T09:25:51.390Z,26.70
2017-09-03T09:28:19.584Z,26.20
2017-09-03T09:30:47.762Z,25.20
2017-09-03T09:33:15.903Z,24.20
2017-09-03T09:35:44.070Z,24.10
2017-09-03T09:38:12.219Z,23.20
2017-09-03T09:40:40.367Z,21.50
2017-09-03T09:43:08.566Z,20.80
2017-09-03T09:45:37.507Z,19.80
2017-09-03T09:48:05.681Z,19.50
2017-09-03T09:50:33.858Z,18.40
2017-09-03T09:53:02.025Z,18.40
2017-09-03T09:55:30.170Z,19.80
2017-09-03T09:57:58.349Z,19.70
2017-09-03T10:00:27.278Z,20.60
2017-09-03T10:02:55.419Z,20.60
2017-09-03T10:05:23.602Z,22.50
2017-09-03T10:07:51.750Z,23.70
2017-09-03T10:10:19.921Z,24.50
2017-09-03T10:12:48.117Z,25.40
2017-09-03T10:15:17.049Z,25.10
2017-09-03T10:17:45.216Z,24.50
2017-09-03T10:20:13.425Z,23.20
2017-09-03T10:22:41.577Z,22.50
2017-09-03T10:25:09.756Z,21.30
2017-09-03T10:27:37.962Z,20.70
2017-09-03T10:30:06.131Z,19.20
2017-09-03T10:32:34.294Z,18.80
2017-09-03T10:35:02.498Z,17.90
2017-09-03T10:37:30.674Z,17.30
2017-09-03T10:39:58.834Z,16.70
2017-09-03T10:42:27.015Z,17.90
2017-09-03T10:44:55.175Z,19.20
2017-09-03T10:47:23.336Z,19.90
2017-09-03T10:49:51.527Z,19.60
2017-09-03T10:52:19.692Z,19.10
2017-09-03T10:54:47.847Z,17.10
2017-09-03T10:57:16.018Z,17.40
2017-09-03T10:59:44.185Z,17.90
2017-09-03T11:02:12.344Z,19.10
2017-09-03T11:04:40.537Z,20.20
2017-09-03T11:07:08.702Z,22.20
2017-09-03T11:09:36.872Z,23.20
2017-09-03T11:12:05.071Z,24.60
2017-09-03T11:14:33.223Z,25.80
2017-09-03T11:17:01.421Z,26.90
2017-09-03T11:19:29.646Z,27.50
2017-09-03T11:21:57.802Z,28.10
2017-09-03T11:24:26.753Z,28.40
2017-09-03T11:26:54.951Z,28.40
2017-09-03T11:29:23.110Z,29.00
2017-09-03T11:31:51.261Z,26.80
2017-09-03T11:34:19.460Z,24.60
2017-09-03T11:36:47.607Z,21.40
2017-09-03T11:39:15.782Z,19.80
2017-09-03T11:41:43.983Z,18.70
2017-09-03T11:44:12.130Z,17.40
2017-09-03T11:46:40.306Z,16.80
2017-09-03T11:49:08.482Z,16.00
2017-09-03T11:51:36.637Z,16.60
2017-09-03T11:54:04.794Z,17.70
2017-09-03T11:56:33.738Z,21.30
2017-09-03T11:59:01.901Z,21.30
2017-09-03T12:01:30.054Z,22.40
2017-09-03T12:03:58.255Z,23.70
2017-09-03T12:06:26.406Z,24.50
2017-09-03T12:08:54.578Z,22.40
2017-09-03T12:11:22.755Z,20.70
2017-09-03T12:13:50.907Z,18.20
2017-09-03T12:16:19.085Z,17.60
2017-09-03T12:18:47.272Z,17.40
2017-09-03T12:21:15.442Z,16.60
2017-09-03T12:23:43.591Z,16.90
2017-09-03T12:26:11.783Z,17.20
2017-09-03T12:28:40.728Z,15.90
2017-09-03T12:31:08.867Z,15.80
2017-09-03T12:33:37.042Z,15.00
2017-09-03T12:36:05.190Z,14.60
2017-09-03T12:38:33.335Z,15.30
2017-09-03T12:41:01.540Z,16.20
2017-09-03T12:43:29.691Z,15.80
2017-09-03T12:45:57.842Z,16.00
2017-09-03T12:48:26.029Z,16.00
2017-09-03T12:50:54.174Z,17.60
2017-09-03T12:53:22.341Z,18.30
2017-09-03T12:55:50.542Z,17.40
2017-09-03T12:58:18.714Z,18.90
2017-09-03T13:00:46.900Z,19.80
2017-09-03T13:03:15.740Z,22.00
2017-09-03T13:05:43.899Z,21.50
2017-09-03T13:08:12.066Z,23.20
2017-09-03T13:10:40.279Z,22.10
2017-09-03T13:13:08.458Z,21.60
2017-09-03T13:15:36.643Z,23.20
2017-09-03T13:18:04.828Z,24.90
2017-09-03T13:20:32.999Z,24.20
2017-09-03T13:23:01.148Z,25.90
2017-09-03T13:25:29.350Z,24.90
2017-09-03T13:27:57.501Z,26.40
2017-09-03T13:30:25.650Z,26.50
2017-09-03T13:32:54.403Z,27.30
2017-09-03T13:35:22.572Z,25.60
2017-09-03T13:37:50.757Z,25.70
2017-09-03T13:40:18.985Z,27.20
2017-09-03T13:42:47.138Z,27.50
2017-09-03T13:45:15.294Z,28.30
2017-09-03T13:47:43.493Z,28.80
2017-09-03T13:50:11.655Z,29.60
2017-09-03T13:52:39.827Z,29.40
2017-09-03T13:55:08.775Z,29.90
2017-09-03T13:57:36.960Z,29.90
2017-09-03T14:00:05.112Z,29.80
2017-09-03T14:02:33.301Z,30.20
2017-09-03T14:05:01.476Z,31.00
2017-09-03T14:07:29.665Z,31.20
2017-09-03T14:09:57.879Z,31.30
2017-09-03T14:12:26.817Z,30.60
2017-09-03T14:14:54.993Z,30.50
2017-09-03T14:17:23.206Z,31.10
2017-09-03T14:19:51.599Z,32.60
2017-09-03T14:22:19.743Z,31.40
2017-09-03T14:24:47.919Z,32.50
2017-09-03T14:27:16.070Z,31.80
2017-09-03T14:29:44.248Z,31.50
2017-09-03T14:32:12.437Z,31.00
2017-09-03T14:34:40.616Z,30.00
2017-09-03T14:37:08.792Z,30.50
2017-09-03T14:39:36.971Z,29.90
2017-09-03T14:42:05.124Z,30.00
2017-09-03T14:44:33.309Z,29.80
2017-09-03T14:47:01.485Z,30.50
2017-09-03T14:49:29.665Z,30.70
2017-09-03T14:51:57.834Z,30.60
2017-09-03T14:54:26.044Z,31.30
2017-09-03T14:56:54.198Z,31.50
2017-09-03T14:59:22.354Z,31.40
2017-09-03T15:01:50.556Z,32.00
2017-09-03T15:04:18.732Z,32.50
2017-09-03T15:06:46.895Z,32.60
2017-09-03T15:09:15.101Z,32.60
2017-09-03T15:11:43.263Z,33.40
2017-09-03T15:14:11.418Z,32.60
2017-09-03T15:16:39.606Z,33.30
2017-09-03T15:19:07.763Z,33.50
2017-09-03T15:21:35.931Z,33.40
2017-09-03T15:24:04.115Z,33.40
2017-09-03T15:26:32.271Z,33.80
2017-09-03T15:29:00.428Z,33.30
2017-09-03T15:31:28.619Z,33.10
2017-09-03T15:33:56.811Z,34.00
2017-09-03T15:36:24.976Z,33.60
2017-09-03T15:38:53.160Z,34.10
2017-09-03T15:41:21.325Z,34.70
2017-09-03T15:43:49.513Z,34.90
2017-09-03T15:46:17.685Z,35.40
2017-09-03T15:48:45.843Z,35.90
2017-09-03T15:51:14.012Z,36.20
2017-09-03T15:53:42.194Z,35.10
2017-09-03T15:56:10.354Z,35.40
2017-09-03T15:58:38.518Z,35.50
2017-09-03T16:01:06.691Z,36.20
2017-09-03T16:03:34.843Z,36.40
2017-09-03T16:06:02.993Z,37.10
2017-09-03T16:08:31.189Z,37.00
2017-09-03T16:11:00.102Z,36.80
2017-09-03T16:13:28.247Z,36.70
2017-09-03T16:15:56.633Z,36.70
2017-09-03T16:18:25.668Z,37.90
2017-09-03T16:20:53.875Z,37.90
2017-09-03T16:23:22.054Z,37.60
2017-09-03T16:25:50.221Z,37.50
2017-09-03T16:28:18.385Z,38.40
2017-09-03T17:20:20.738Z,55.10
2017-09-03T17:24:52.854Z,47.10
2017-09-03T17:54:32.653Z,56.60
2017-09-03T17:57:01.148Z,57.10
2017-09-03T17:59:37.957Z,57.50
2017-09-03T18:02:06.232Z,57.40
2017-09-03T18:04:44.113Z,57.80
2017-09-03T18:07:17.640Z,57.90
2017-09-03T18:09:50.674Z,58.00
2017-09-03T18:12:18.991Z,58.50
2017-09-03T18:14:47.326Z,58.40
2017-09-03T18:17:15.632Z,58.40
2017-09-03T18:19:43.982Z,58.50
2017-09-03T18:22:13.359Z,58.50
2017-09-03T18:24:56.042Z,58.40
2017-09-03T18:27:27.814Z,58.40
2017-09-03T18:29:57.443Z,58.90
2017-09-03T18:32:26.774Z,58.90
2017-09-03T18:34:55.463Z,58.90
2017-09-03T18:37:34.639Z,59.10
2017-09-03T18:40:22.621Z,59.40
2017-09-03T18:42:57.310Z,59.30
2017-09-03T18:45:28.378Z,59.70
2017-09-03T18:47:57.354Z,59.60
2017-09-03T18:50:26.489Z,59.70
2017-09-03T18:53:01.464Z,59.70
2017-09-03T18:55:32.684Z,59.80
2017-09-03T18:58:05.032Z,59.80
2017-09-03T19:00:33.766Z,60.00
2017-09-03T19:03:02.242Z,60.00
2017-09-03T19:08:34.189Z,60.10
2017-09-03T19:11:05.762Z,60.20
2017-09-03T19:13:34.186Z,60.30
2017-09-03T19:16:07.161Z,60.40
2017-09-03T19:18:36.668Z,60.40
2017-09-03T19:21:06.791Z,60.50
2017-09-03T19:23:35.469Z,60.50
2017-09-03T19:26:05.276Z,60.60
2017-09-03T19:28:34.331Z,60.80
2017-09-03T19:31:05.322Z,60.80
2017-09-03T19:33:39.995Z,60.80
2017-09-03T19:36:08.643Z,61.60
2017-09-03T19:38:37.103Z,61.00
2017-09-03T19:43:43.228Z,61.10
2017-09-03T19:46:11.667Z,61.20
2017-09-03T19:48:40.176Z,61.20
2017-09-03T19:51:08.790Z,61.30
2017-09-03T19:53:37.172Z,61.30
2017-09-03T19:56:06.376Z,61.20
2017-09-03T19:58:34.958Z,61.30
2017-09-03T20:01:04.123Z,61.40
2017-09-03T20:03:32.517Z,61.30
2017-09-03T20:06:03.567Z,61.40
2017-09-03T20:08:32.877Z,61.40
2017-09-03T20:11:01.345Z,61.50
2017-09-03T20:13:29.699Z,61.50
2017-09-03T20:16:00.418Z,61.50
2017-09-03T20:18:30.492Z,61.70
2017-09-03T20:20:59.769Z,61.70
2017-09-03T20:23:28.266Z,61.60
2017-09-03T20:25:56.685Z,61.70
2017-09-03T20:28:25.064Z,61.70
2017-09-03T20:30:53.380Z,61.60
2017-09-03T20:33:22.460Z,61.70
2017-09-03T20:35:52.766Z,61.70
2017-09-03T20:38:21.066Z,61.70
2017-09-03T20:40:49.421Z,61.80
2017-09-03T20:43:18.990Z,61.80
2017-09-03T20:45:47.342Z,61.90
2017-09-03T20:48:15.822Z,62.00
2017-09-03T20:50:44.113Z,62.10
2017-09-03T20:53:12.363Z,62.10
2017-09-03T20:55:41.302Z,62.10
2017-09-03T20:58:09.705Z,62.80
2017-09-03T21:00:38.090Z,62.50
2017-09-03T21:03:06.343Z,62.60
2017-09-03T21:05:35.578Z,62.70
2017-09-03T21:08:06.116Z,62.70
2017-09-03T21:10:34.390Z,63.40
2017-09-03T21:13:03.908Z,62.50
2017-09-03T21:15:33.155Z,62.50
2017-09-03T21:18:01.387Z,62.50
2017-09-03T21:20:30.548Z,62.40
2017-09-03T21:22:59.608Z,62.60
2017-09-03T21:25:27.905Z,62.40
2017-09-03T21:27:56.187Z,62.60
2017-09-03T21:30:24.481Z,62.60
2017-09-03T21:32:52.844Z,62.60
2017-09-03T21:35:21.084Z,62.70
2017-09-03T21:37:49.300Z,62.60
2017-09-03T21:40:20.631Z,62.70
2017-09-03T21:42:48.838Z,62.90
2017-09-03T21:45:17.196Z,62.50
2017-09-03T21:47:50.765Z,62.70
2017-09-03T21:50:19.013Z,62.80
2017-09-03T21:52:47.226Z,62.70
2017-09-03T21:55:15.860Z,62.90
2017-09-03T21:57:44.054Z,62.90
2017-09-03T22:00:12.336Z,62.80
2017-09-03T22:02:40.673Z,62.90
2017-09-03T22:05:08.936Z,63.00
2017-09-03T22:07:37.169Z,62.90
2017-09-03T22:10:05.423Z,62.90
2017-09-03T22:12:40.438Z,62.90
2017-09-03T22:15:08.860Z,63.00
2017-09-03T22:17:37.104Z,63.00
2017-09-03T22:20:05.384Z,63.00
2017-09-03T22:22:33.602Z,63.00
2017-09-03T22:25:01.830Z,62.90
2017-09-03T22:27:30.076Z,63.00
2017-09-03T22:29:58.283Z,62.90
2017-09-03T22:32:26.515Z,63.20
2017-09-03T22:34:54.767Z,63.20
2017-09-03T22:37:23.070Z,62.90
2017-09-03T22:39:51.346Z,62.70
2017-09-03T22:42:19.583Z,62.70
2017-09-03T22:44:47.818Z,62.20
2017-09-03T22:47:16.049Z,63.20
2017-09-03T22:49:44.382Z,63.10
2017-09-03T22:52:12.729Z,63.20
2017-09-03T22:54:41.106Z,63.00
2017-09-03T22:57:09.526Z,63.20
2017-09-03T22:59:37.950Z,63.20
2017-09-03T23:02:06.435Z,62.90
2017-09-03T23:04:34.814Z,63.10
2017-09-03T23:07:04.009Z,63.30
2017-09-03T23:09:32.562Z,63.30
2017-09-03T23:12:00.970Z,63.20
2017-09-03T23:14:31.035Z,63.00
2017-09-03T23:17:00.264Z,63.00
2017-09-03T23:19:28.564Z,63.00
2017-09-03T23:21:56.891Z,63.10
2017-09-03T23:24:25.280Z,63.20
2017-09-03T23:26:53.881Z,63.90
2017-09-03T23:29:22.955Z,63.20
2017-09-03T23:31:51.270Z,63.10
2017-09-03T23:34:20.852Z,63.20
2017-09-03T23:36:49.228Z,63.30
2017-09-03T23:39:17.532Z,63.10
2017-09-03T23:41:45.915Z,63.10
2017-09-03T23:44:14.289Z,63.00
2017-09-03T23:46:42.592Z,63.30
2017-09-03T23:49:10.915Z,63.40
2017-09-03T23:51:39.211Z,63.30
2017-09-03T23:54:07.482Z,63.20
2017-09-03T23:56:37.011Z,63.20
2017-09-03T23:59:05.947Z,63.20
